createdAt,value
2023-03-19T04:02:16.724Z,7.43
2023-03-19T04:04:46.075Z,9.02
2023-03-19T04:07:14.130Z,9.35
2023-03-19T04:09:41.276Z,8.87
2023-03-19T04:12:08.728Z,6.72
2023-03-19T04:14:36.596Z,40.47
2023-03-19T04:17:05.149Z,10.05
2023-03-19T04:19:32.543Z,12.45
2023-03-19T04:21:59.793Z,9.60
2023-03-19T04:24:27.014Z,13.70
2023-03-19T04:26:54.174Z,11.05
2023-03-19T04:29:22.589Z,11.38
2023-03-19T04:31:51.015Z,10.13
2023-03-19T04:34:18.348Z,14.88
2023-03-19T04:36:45.572Z,10.38
2023-03-19T04:39:12.823Z,7.40
2023-03-19T04:41:39.994Z,13.38
2023-03-19T04:44:07.687Z,10.48
2023-03-19T04:46:34.844Z,9.27
2023-03-19T04:49:02.168Z,7.07
2023-03-19T04:51:29.426Z,12.02
2023-03-19T04:53:57.126Z,10.65
2023-03-19T04:56:24.309Z,10.40
2023-03-19T04:58:51.598Z,10.90
2023-03-19T05:01:18.801Z,11.45
2023-03-19T05:03:46.595Z,11.15
2023-03-19T05:06:13.896Z,19.02
2023-03-19T05:08:41.196Z,9.95
2023-03-19T05:11:08.472Z,10.65
2023-03-19T05:13:35.636Z,12.05
2023-03-19T05:16:03.665Z,8.25
2023-03-19T05:18:30.865Z,6.82
2023-03-19T05:20:58.534Z,10.70
2023-03-19T05:23:25.781Z,10.48
2023-03-19T05:25:53.219Z,7.53
2023-03-19T05:28:20.667Z,11.85
2023-03-19T05:30:48.047Z,10.43
2023-03-19T05:33:15.340Z,14.48
2023-03-19T05:35:42.633Z,12.90
2023-03-19T05:38:11.167Z,11.77
2023-03-19T05:40:38.413Z,9.13
2023-03-19T05:43:05.595Z,8.23
2023-03-19T05:45:32.844Z,8.95
2023-03-19T05:48:00.470Z,9.90
2023-03-19T05:50:27.655Z,11.07
2023-03-19T05:52:54.838Z,9.93
2023-03-19T05:55:22.093Z,7.65
2023-03-19T05:57:49.258Z,10.93
2023-03-19T06:00:17.424Z,12.73
2023-03-19T06:02:44.807Z,13.73
2023-03-19T06:05:12.114Z,11.48
2023-03-19T06:07:39.403Z,7.18
2023-03-19T06:10:07.673Z,12.32
2023-03-19T06:12:35.153Z,11.13
2023-03-19T06:15:02.476Z,12.48
2023-03-19T06:17:29.720Z,11.90
2023-03-19T06:19:56.999Z,14.38
2023-03-19T06:22:24.198Z,15.40
2023-03-19T06:24:51.610Z,13.10
2023-03-19T06:27:18.873Z,11.93
2023-03-19T06:29:46.647Z,11.85
2023-03-19T06:32:13.973Z,12.80
2023-03-19T06:34:41.155Z,9.20
2023-03-19T06:37:08.468Z,13.13
2023-03-19T06:39:35.631Z,12.25
2023-03-19T06:42:02.870Z,9.27
2023-03-19T06:44:30.101Z,10.70
2023-03-19T06:46:57.326Z,10.85
2023-03-19T06:49:24.540Z,11.15
2023-03-19T06:51:51.736Z,9.52
2023-03-19T06:54:19.147Z,14.90
2023-03-19T06:56:46.978Z,10.30
2023-03-19T06:59:14.279Z,9.60
2023-03-19T07:01:42.261Z,9.38
2023-03-19T07:04:10.958Z,9.60
2023-03-19T07:06:38.267Z,9.80
2023-03-19T07:09:05.793Z,9.45
2023-03-19T07:11:35.716Z,11.52
2023-03-19T07:14:03.904Z,12.55
2023-03-19T07:16:31.362Z,11.27
2023-03-19T07:18:58.622Z,7.63
2023-03-19T07:21:25.884Z,11.32
2023-03-19T07:23:53.097Z,11.93
2023-03-19T07:26:20.373Z,17.08
2023-03-19T07:28:48.377Z,13.98
2023-03-19T07:31:16.918Z,18.42
2023-03-19T07:33:44.463Z,18.65
2023-03-19T07:36:12.478Z,17.70
2023-03-19T07:38:39.693Z,16.15
2023-03-19T07:41:06.913Z,16.30
2023-03-19T07:43:34.174Z,16.48
2023-03-19T07:46:01.881Z,12.45
2023-03-19T07:48:29.102Z,15.00
2023-03-19T07:50:56.301Z,10.20
2023-03-19T07:53:23.471Z,10.80
2023-03-19T07:55:50.793Z,7.47
2023-03-19T07:58:18.298Z,13.07
2023-03-19T08:00:45.594Z,14.93
2023-03-19T08:03:13.224Z,13.57
2023-03-19T08:05:40.791Z,9.90
2023-03-19T08:08:08.711Z,7.75
2023-03-19T08:10:38.062Z,9.23
2023-03-19T08:13:05.783Z,10.38
2023-03-19T08:15:33.494Z,14.02
2023-03-19T08:18:03.384Z,11.38
2023-03-19T08:20:32.568Z,12.35
2023-03-19T08:23:00.050Z,13.07
2023-03-19T08:25:27.579Z,14.05
2023-03-19T08:27:54.752Z,11.75
2023-03-19T08:30:22.022Z,12.23
2023-03-19T08:32:50.541Z,13.80
2023-03-19T08:35:18.214Z,11.63
2023-03-19T08:37:45.682Z,13.02
2023-03-19T08:40:13.096Z,11.27
2023-03-19T08:42:44.875Z,9.75
2023-03-19T08:45:14.720Z,10.77
2023-03-19T08:47:43.172Z,13.77
2023-03-19T08:50:11.381Z,11.25
2023-03-19T08:52:38.813Z,10.13
2023-03-19T08:55:07.393Z,8.50
2023-03-19T08:57:35.590Z,8.68
2023-03-19T09:00:05.714Z,9.32
2023-03-19T09:02:32.926Z,9.50
2023-03-19T09:05:00.264Z,8.95
2023-03-19T09:07:27.534Z,7.43
2023-03-19T09:09:54.822Z,9.35
2023-03-19T09:12:22.004Z,8.75
2023-03-19T09:14:49.563Z,8.15
2023-03-19T09:17:18.248Z,8.43
2023-03-19T09:19:45.466Z,10.15
2023-03-19T09:22:12.736Z,8.63
2023-03-19T09:24:40.746Z,7.55
2023-03-19T09:27:08.241Z,8.30
2023-03-19T09:29:35.489Z,5.43
2023-03-19T09:32:02.800Z,10.63
2023-03-19T09:34:29.995Z,6.30
2023-03-19T09:36:57.262Z,7.38
2023-03-19T09:39:24.492Z,7.40
2023-03-19T09:41:59.819Z,6.80
2023-03-19T09:44:34.654Z,8.68
2023-03-19T09:47:31.686Z,7.25
2023-03-19T09:50:04.046Z,6.47
2023-03-19T09:52:53.951Z,5.80
2023-03-19T09:55:31.430Z,4.45
2023-03-19T09:57:58.992Z,5.47
2023-03-19T10:00:30.043Z,5.38
2023-03-19T10:03:06.397Z,5.72
2023-03-19T10:05:54.175Z,4.38
2023-03-19T10:08:21.306Z,8.07
2023-03-19T10:11:08.391Z,5.30
2023-03-19T10:14:05.924Z,5.20
2023-03-19T10:16:35.121Z,8.02
2023-03-19T10:19:06.399Z,4.90
2023-03-19T10:21:39.795Z,4.97
2023-03-19T10:24:33.226Z,5.82
2023-03-19T10:27:14.659Z,4.43
2023-03-19T10:29:42.209Z,4.63
2023-03-19T10:32:38.245Z,4.72
2023-03-19T10:35:21.179Z,5.18
2023-03-19T10:37:55.071Z,4.28
2023-03-19T10:40:37.286Z,4.88
2023-03-19T10:43:17.103Z,4.47
2023-03-19T10:45:44.315Z,5.00
2023-03-19T10:48:17.262Z,4.72
2023-03-19T10:50:52.749Z,5.13
2023-03-19T10:53:43.762Z,4.80
2023-03-19T10:56:23.244Z,6.00
2023-03-19T10:58:58.180Z,5.10
2023-03-19T11:01:36.424Z,5.10
2023-03-19T11:04:14.253Z,6.28
2023-03-19T11:06:41.591Z,5.20
2023-03-19T11:09:08.719Z,6.63
2023-03-19T11:11:57.334Z,4.90
2023-03-19T11:14:38.553Z,5.18
2023-03-19T11:17:11.799Z,4.75
2023-03-19T11:19:48.720Z,4.90
2023-03-19T11:22:21.205Z,4.72
2023-03-19T11:24:52.927Z,4.85
2023-03-19T11:27:28.484Z,6.18
2023-03-19T11:30:05.690Z,5.47
2023-03-19T11:32:55.760Z,5.38
2023-03-19T11:35:53.973Z,5.07
2023-03-19T11:39:01.017Z,4.85
2023-03-19T11:41:58.084Z,5.00
2023-03-19T11:44:53.804Z,4.82
2023-03-19T11:48:06.579Z,5.05
2023-03-19T11:50:56.434Z,7.55
2023-03-19T11:53:59.128Z,5.00
2023-03-19T11:56:47.541Z,6.35
2023-03-19T11:59:36.606Z,5.20
2023-03-19T12:02:34.467Z,5.18
2023-03-19T12:05:23.023Z,4.75
2023-03-19T12:08:17.490Z,5.18
2023-03-19T12:11:22.048Z,4.93
2023-03-19T12:13:54.829Z,4.95
2023-03-19T12:16:28.659Z,5.40
2023-03-19T12:19:15.650Z,5.30
2023-03-19T12:22:14.879Z,7.63
2023-03-19T12:24:53.538Z,7.03
2023-03-19T12:27:34.430Z,5.00
2023-03-19T12:30:13.544Z,5.07
2023-03-19T12:32:59.528Z,5.65
2023-03-19T12:35:35.601Z,5.45
2023-03-19T12:38:24.404Z,4.68
2023-03-19T12:41:03.743Z,4.80
2023-03-19T12:43:37.522Z,10.63
2023-03-19T12:46:12.112Z,7.95
2023-03-19T12:49:08.112Z,4.68
2023-03-19T12:51:50.700Z,4.47
2023-03-19T12:54:21.549Z,5.15
2023-03-19T12:57:12.720Z,5.93
2023-03-19T13:00:06.616Z,5.75
2023-03-19T13:02:37.257Z,4.35
2023-03-19T13:05:17.506Z,5.32
2023-03-19T13:08:03.814Z,5.65
2023-03-19T13:10:32.550Z,4.72
2023-03-19T13:13:07.018Z,4.88
2023-03-19T13:15:41.542Z,5.53
2023-03-19T13:18:14.489Z,5.32
2023-03-19T13:21:13.119Z,5.20
2023-03-19T13:23:44.062Z,4.85
2023-03-19T13:26:13.488Z,7.22
2023-03-19T13:29:19.180Z,5.53
2023-03-19T13:31:46.956Z,5.35
2023-03-19T13:34:16.929Z,4.63
2023-03-19T13:37:14.847Z,5.70
2023-03-19T13:39:43.545Z,5.57
2023-03-19T13:42:42.060Z,5.30
2023-03-19T13:45:30.905Z,5.75
2023-03-19T13:47:59.314Z,5.68
2023-03-19T13:50:31.630Z,7.07
2023-03-19T13:53:26.392Z,5.05
2023-03-19T13:55:57.935Z,5.40
2023-03-19T13:58:46.020Z,4.90
2023-03-19T14:01:25.660Z,6.00
2023-03-19T14:04:15.858Z,5.88
2023-03-19T14:06:46.873Z,5.13
2023-03-19T14:09:37.838Z,5.43
2023-03-19T14:12:22.827Z,4.95
2023-03-19T14:14:57.050Z,5.95
2023-03-19T14:17:33.408Z,5.35
2023-03-19T14:20:17.233Z,4.60
2023-03-19T14:22:56.648Z,4.53
2023-03-19T14:25:27.455Z,5.03
2023-03-19T14:27:59.194Z,5.00
2023-03-19T14:30:50.439Z,4.60
2023-03-19T14:33:28.333Z,5.95
2023-03-19T14:35:58.991Z,5.00
2023-03-19T14:38:58.325Z,4.78
2023-03-19T14:41:28.687Z,5.15
2023-03-19T14:44:28.595Z,5.28
2023-03-19T14:47:14.556Z,6.15
2023-03-19T14:49:41.750Z,5.00
2023-03-19T14:52:21.191Z,5.05
2023-03-19T14:54:53.454Z,5.55
2023-03-19T14:57:26.934Z,5.10
2023-03-19T14:59:55.092Z,6.82
2023-03-19T15:02:39.146Z,5.03
2023-03-19T15:05:30.616Z,4.72
2023-03-19T15:08:02.398Z,4.72
2023-03-19T15:10:41.639Z,4.90
2023-03-19T15:13:35.524Z,5.10
2023-03-19T15:16:13.250Z,5.15
2023-03-19T15:18:40.772Z,5.20
2023-03-19T15:21:08.453Z,5.45
2023-03-19T15:23:38.861Z,4.20
2023-03-19T15:26:11.410Z,4.45
2023-03-19T15:28:50.077Z,5.47
2023-03-19T15:31:46.270Z,4.65
2023-03-19T15:34:21.472Z,5.40
2023-03-19T15:36:58.872Z,5.45
2023-03-19T15:39:31.647Z,5.13
2023-03-19T15:42:01.606Z,6.25
2023-03-19T15:44:36.552Z,5.43
2023-03-19T15:47:06.927Z,4.93
2023-03-19T15:49:42.228Z,5.78
2023-03-19T15:52:12.930Z,5.18
2023-03-19T15:54:40.902Z,6.07
2023-03-19T15:57:10.238Z,5.07
2023-03-19T15:59:37.725Z,6.00
2023-03-19T16:02:19.805Z,5.78
2023-03-19T16:05:14.190Z,5.63
2023-03-19T16:07:43.563Z,5.00
2023-03-19T16:10:29.021Z,5.57
2023-03-19T16:12:56.426Z,5.30
2023-03-19T16:15:40.202Z,6.05
2023-03-19T16:18:23.704Z,4.72
2023-03-19T16:21:19.580Z,5.38
2023-03-19T16:23:54.197Z,4.88
2023-03-19T16:26:37.378Z,5.32
2023-03-19T16:29:20.478Z,4.78
2023-03-19T16:31:58.928Z,4.43
2023-03-19T16:34:46.638Z,4.75
2023-03-19T16:37:32.758Z,4.15
2023-03-19T16:40:13.894Z,4.47
2023-03-19T16:42:49.600Z,6.55
2023-03-19T16:45:27.479Z,5.22
2023-03-19T16:47:57.086Z,5.38
2023-03-19T16:50:29.771Z,5.43
2023-03-19T16:52:59.104Z,5.68
2023-03-19T16:55:29.724Z,5.15
2023-03-19T16:58:00.692Z,5.80
2023-03-19T17:00:31.830Z,6.10
2023-03-19T17:03:00.508Z,5.20
2023-03-19T17:05:28.804Z,5.10
2023-03-19T17:07:56.310Z,6.20
2023-03-19T17:10:27.512Z,5.28
2023-03-19T17:12:56.089Z,5.38
2023-03-19T17:15:34.978Z,5.57
2023-03-19T17:18:04.131Z,6.85
2023-03-19T17:20:36.067Z,5.72
2023-03-19T17:23:11.296Z,5.57
2023-03-19T17:25:38.948Z,5.53
2023-03-19T17:28:06.370Z,3.92
2023-03-19T17:30:34.404Z,4.13
2023-03-19T17:33:02.086Z,4.63
2023-03-19T17:35:29.423Z,4.50
2023-03-19T17:37:56.695Z,4.15
2023-03-19T17:40:27.244Z,3.67
2023-03-19T17:42:55.914Z,4.45
2023-03-19T17:45:29.665Z,4.70
2023-03-19T17:47:58.504Z,4.72
2023-03-19T17:50:28.753Z,7.13
2023-03-19T17:52:56.250Z,4.75
2023-03-19T17:55:26.221Z,4.90
2023-03-19T17:57:53.982Z,4.90
2023-03-19T18:00:23.329Z,4.95
2023-03-19T18:02:53.718Z,4.72
2023-03-19T18:05:23.624Z,4.85
2023-03-19T18:07:53.983Z,4.68
2023-03-19T18:10:29.663Z,4.47
2023-03-19T18:12:59.947Z,5.35
2023-03-19T18:15:29.556Z,5.25
2023-03-19T18:17:58.718Z,5.15
2023-03-19T18:20:31.814Z,5.68
2023-03-19T18:22:58.994Z,5.70
2023-03-19T18:25:27.962Z,5.65
2023-03-19T18:27:55.413Z,5.07
2023-03-19T18:30:23.920Z,5.97
2023-03-19T18:32:55.996Z,5.40
2023-03-19T18:35:41.300Z,6.53
2023-03-19T18:38:27.460Z,6.38
2023-03-19T18:40:54.727Z,6.43
2023-03-19T18:43:22.166Z,5.07
2023-03-19T18:45:52.487Z,5.10
2023-03-19T18:48:20.914Z,5.68
2023-03-19T18:50:48.466Z,5.22
2023-03-19T18:53:17.031Z,5.25
2023-03-19T18:55:44.898Z,5.80
2023-03-19T18:58:24.266Z,6.10
2023-03-19T19:00:52.223Z,5.43
2023-03-19T19:03:28.379Z,5.60
2023-03-19T19:05:56.288Z,6.00
2023-03-19T19:08:25.273Z,5.55
2023-03-19T19:10:56.408Z,5.70
2023-03-19T19:13:27.275Z,5.88
2023-03-19T19:15:54.878Z,5.78
2023-03-19T19:18:27.078Z,6.20
2023-03-19T19:20:54.556Z,5.95
2023-03-19T19:23:26.631Z,5.70
2023-03-19T19:25:57.482Z,7.00
2023-03-19T19:28:27.707Z,5.65
2023-03-19T19:30:57.521Z,5.80
2023-03-19T19:33:28.009Z,6.13
2023-03-19T19:35:55.960Z,5.18
2023-03-19T19:38:23.200Z,4.90
2023-03-19T19:40:52.955Z,5.22
2023-03-19T19:43:25.205Z,4.65
2023-03-19T19:45:54.884Z,4.65
2023-03-19T19:48:27.420Z,4.57
2023-03-19T19:50:56.418Z,5.10
2023-03-19T19:53:26.071Z,5.18
2023-03-19T19:55:53.695Z,5.20
2023-03-19T19:58:22.619Z,4.85
2023-03-19T20:01:02.974Z,5.20
2023-03-19T20:03:33.081Z,4.63
2023-03-19T20:06:01.459Z,4.70
2023-03-19T20:08:29.154Z,5.13
2023-03-19T20:10:57.192Z,5.05
2023-03-19T20:13:34.170Z,4.65
2023-03-19T20:16:02.822Z,4.80
2023-03-19T20:18:33.353Z,5.50
2023-03-19T20:21:01.039Z,5.00
2023-03-19T20:23:28.293Z,5.28
2023-03-19T20:25:55.918Z,4.32
2023-03-19T20:28:32.462Z,5.25
2023-03-19T20:31:01.574Z,5.80
2023-03-19T20:33:30.433Z,5.50
2023-03-19T20:35:58.330Z,5.03
2023-03-19T20:38:27.364Z,5.10
2023-03-19T20:40:56.824Z,5.05
2023-03-19T20:43:28.626Z,5.35
2023-03-19T20:46:04.628Z,4.38
2023-03-19T20:48:33.269Z,4.00
2023-03-19T20:51:01.886Z,3.83
2023-03-19T20:53:29.646Z,3.78
2023-03-19T20:55:57.323Z,3.65
2023-03-19T20:58:30.847Z,4.10
2023-03-19T21:00:58.723Z,3.60
2023-03-19T21:03:30.675Z,3.40
2023-03-19T21:06:20.883Z,3.33
2023-03-19T21:08:51.615Z,3.78
2023-03-19T21:11:21.782Z,3.45
2023-03-19T21:13:52.518Z,3.58
2023-03-19T21:16:25.581Z,3.60
2023-03-19T21:18:54.034Z,3.30
2023-03-19T21:21:31.576Z,3.47
2023-03-19T21:24:06.987Z,3.70
2023-03-19T21:26:39.282Z,3.08
2023-03-19T21:29:15.948Z,3.50
2023-03-19T21:31:43.260Z,3.40
2023-03-19T21:34:14.308Z,3.35
2023-03-19T21:36:41.844Z,3.30
2023-03-19T21:39:09.016Z,3.80
2023-03-19T21:41:37.355Z,3.83
2023-03-19T21:44:11.336Z,3.33
2023-03-19T21:46:38.923Z,3.00
2023-03-19T21:49:11.186Z,3.53
2023-03-19T21:51:38.459Z,3.30
2023-03-19T21:54:05.883Z,3.28
2023-03-19T21:56:38.445Z,2.80
2023-03-19T21:59:13.950Z,3.20
